D/T METAR WX W/DIR W/SPE G/SPE TEMP DEWP
27/05/19 08:50 EGKK 270750Z 26009KT CAVOK 13/09 Q1012 W (260°) 10.4mph 13°C 9°C
27/05/19 08:20 EGKK 270720Z 26008KT CAVOK 13/10 Q1012 W (260°) 9.2mph 13°C 10°C
27/05/19 07:50 EGKK 270650Z 24006KT CAVOK 11/09 Q1012 WSW (240°) 6.9mph 11°C 9°C
27/05/19 07:20 EGKK 270620Z 24005KT CAVOK 11/09 Q1012 WSW (240°) 5.8mph 11°C 9°C
27/05/19 06:50 EGKK 270550Z 23004KT CAVOK 10/09 Q1012 SW (230°) 4.6mph 10°C 9°C
27/05/19 06:20 EGKK 270520Z 23006KT CAVOK 10/08 Q1012 SW (230°) 6.9mph 10°C 8°C
27/05/19 05:50 EGKK 270450Z 22005KT CAVOK 09/08 Q1012 SW (220°) 5.8mph 9°C 8°C
27/05/19 05:20 EGKK 270420Z 20002KT CAVOK 08/08 Q1012 SSW (200°) 2.3mph 8°C 8°C
27/05/19 04:50 EGKK 270350Z 21002KT CAVOK 09/08 Q1012 SSW (210°) 2.3mph 9°C 8°C
27/05/19 04:20 EGKK 270320Z 19004KT CAVOK 09/08 Q1012 S (190°) 4.6mph 9°C 8°C
27/05/19 03:50 EGKK 270250Z 21003KT CAVOK 09/08 Q1012 SSW (210°) 3.5mph 9°C 8°C
27/05/19 03:20 EGKK 270220Z 20004KT CAVOK 09/08 Q1012 SSW (200°) 4.6mph 9°C 8°C
27/05/19 02:50 EGKK 270150Z 18003KT CAVOK 10/08 Q1012 S (180°) 3.5mph 10°C 8°C
27/05/19 02:20 EGKK 270120Z VRB03KT CAVOK 11/08 Q1012 N (0°) 3.5mph 11°C 8°C
27/05/19 01:50 EGKK 270050Z 24004KT CAVOK 11/08 Q1012 WSW (240°) 4.6mph 11°C 8°C
27/05/19 01:20 EGKK 270020Z VRB03KT CAVOK 11/08 Q1012 N (0°) 3.5mph 11°C 8°C
27/05/19 00:50 EGKK 262350Z 27006KT CAVOK 10/08 Q1012 W (270°) 6.9mph 10°C 8°C
27/05/19 00:20 EGKK 262320Z 28004KT 9999 FEW042 12/09 Q1012 W (280°) 4.6mph 12°C 9°C
26/05/19 23:50 EGKK 262250Z 26005KT 9999 FEW039 13/10 Q1012 W (260°) 5.8mph 13°C 10°C
26/05/19 23:20 EGKK 262220Z 28006KT 9999 FEW039 14/11 Q1012 W (280°) 6.9mph 14°C 11°C
26/05/19 22:50 EGKK 262150Z 25007KT 9999 FEW035 14/13 Q1012 WSW (250°) 8.1mph 14°C 13°C
26/05/19 22:20 EGKK 262120Z 25007KT 9999 SCT024 15/14 Q1012 WSW (250°) 8.1mph 15°C 14°C
26/05/19 21:50 EGKK 262050Z 23005KT 9999 FEW031 15/14 Q1012 SW (230°) 5.8mph 15°C 14°C
26/05/19 21:20 EGKK 262020Z 22006KT CAVOK 15/14 Q1011 SW (220°) 6.9mph 15°C 14°C
26/05/19 20:50 EGKK 261950Z 23008KT 9999 FEW010 16/14 Q1011 SW (230°) 9.2mph 16°C 14°C
26/05/19 20:20 EGKK 261920Z 23008KT 9999 FEW017 16/15 Q1011 SW (230°) 9.2mph 16°C 15°C
26/05/19 19:50 EGKK 261850Z 23008KT 9999 FEW012 16/15 Q1011 SW (230°) 9.2mph 16°C 15°C
26/05/19 19:20 EGKK 261820Z 23008KT 7000 -RA BKN012 BKN017 16/15 Q1011 -RA SW (230°) 9.2mph 16°C 15°C
26/05/19 18:50 EGKK 261750Z 23011KT 9999 -RA FEW009 BKN023 17/15 Q1011 -RA SW (230°) 12.7mph 17°C 15°C
26/05/19 18:20 EGKK 261720Z 23009KT 9999 FEW018 BKN024 18/14 Q1011 SW (230°) 10.4mph 18°C 14°C
26/05/19 17:50 EGKK 261650Z 23009KT 9999 BKN025 18/14 Q1011 SW (230°) 10.4mph 18°C 14°C
26/05/19 17:20 EGKK 261620Z 23008KT 9999 BKN018 BKN029 18/15 Q1011 SW (230°) 9.2mph 18°C 15°C
26/05/19 16:50 EGKK 261550Z 23009KT 180V250 9999 SCT022 BKN027 19/15 Q1012 SW (230°) 10.4mph 19°C 15°C
26/05/19 16:20 EGKK 261520Z 24009KT 9999 SCT024 BKN029 19/14 Q1012 WSW (240°) 10.4mph 19°C 14°C
26/05/19 15:50 EGKK 261450Z 25009KT 9999 SCT019 BKN024 19/14 Q1012 WSW (250°) 10.4mph 19°C 14°C
26/05/19 15:20 EGKK 261420Z 21008KT 180V240 9999 SCT012 BKN023 18/15 Q1012 SSW (210°) 9.2mph 18°C 15°C
26/05/19 14:50 EGKK 261350Z 21008KT 7000 VCSH FEW011 SCT016 BKN021 18/15 Q1013 VCSH SSW (210°) 9.2mph 18°C 15°C
26/05/19 14:20 EGKK 261320Z 22011KT 9999 VCSH BKN020 19/14 Q1013 VCSH SW (220°) 12.7mph 19°C 14°C
26/05/19 13:50 EGKK 261250Z 22009KT 160V250 9999 SCT024 19/14 Q1013 SW (220°) 10.4mph 19°C 14°C
26/05/19 13:20 EGKK 261220Z 23010KT 210V270 9999 SCT024 19/13 Q1013 SW (230°) 11.5mph 19°C 13°C
26/05/19 12:50 EGKK 261150Z 23010G20KT 190V260 9999 SCT021 19/13 Q1013 SW (230°) 11.5mph 23.0mph 19°C 13°C
26/05/19 12:20 EGKK 261120Z 22011KT 9999 SCT021 18/13 Q1014 SW (220°) 12.7mph 18°C 13°C
26/05/19 11:50 EGKK 261050Z 24011KT 190V270 9999 BKN023 19/13 Q1014 WSW (240°) 12.7mph 19°C 13°C
26/05/19 11:20 EGKK 261020Z 24011KT 9999 SCT025 19/13 Q1014 WSW (240°) 12.7mph 19°C 13°C
26/05/19 10:50 EGKK 260950Z 23011KT 200V270 9999 FEW024 19/12 Q1014 SW (230°) 12.7mph 19°C 12°C
26/05/19 10:20 EGKK 260920Z 25011KT 9999 FEW021 18/12 Q1015 WSW (250°) 12.7mph 18°C 12°C
26/05/19 09:50 EGKK 260850Z 24009KT 9999 FEW018 17/13 Q1015 WSW (240°) 10.4mph 17°C 13°C
26/05/19 08:50 EGKK 260750Z 22009KT 180V250 9999 SCT009 15/12 Q1015 SW (220°) 10.4mph 15°C 12°C